Oriana — ZCDU9 — position and weather

sailwx.info

Track history (hours):
 
Tides and Currents Weather Stations Pressure Air Temp Water Temp Dewpoint Dewpoint Depression Visibility Wind Speed Wind Dir Waves Ship Positions

Oriana (Bermuda)

Last reported at 2014-Sep-03 06:32 UTC. Time now 2014-Sep-03 06:55 UTC.
Position N 59°21' E 018°07'.

Length 261 m; beam 32.2 m; draft 8.2 m.

Type: Ship. MMSI: 310529000.

Date/timePositionNaut miles runAvg speedWind from/ knotsBaromVisibWave heightAir tempDewpointWater temp
2014-Sep-03 06:32N 59°21' E 018°07'0 0.0
2014-Sep-03 05:32N 59°21' E 018°07'0 0.0
2014-Sep-03 04:26N 59°21' E 018°07'0 0.0
2014-Sep-03 03:20N 59°21' E 018°07'0 0.0
2014-Sep-03 02:32N 59°21' E 018°07'0 0.0
2014-Sep-03 01:08N 59°21' E 018°07'0 0.0
2014-Sep-03 00:32N 59°21' E 018°07'0 0.0
2014-Sep-02 22:15N 59°21' E 018°07'0 0.0
2014-Sep-02 19:33N 59°21' E 018°07'0 0.0
2014-Sep-02 18:33N 59°21' E 018°07'0 0.0
2014-Sep-02 17:15N 59°21' E 018°07'0 0.0
2014-Sep-02 16:27N 59°21' E 018°07'0 0.0
2014-Sep-02 13:31N 59°21' E 018°07'0 0.0
2014-Sep-02 11:31N 59°21' E 018°07'0 0.0
2014-Sep-02 10:09N 59°21' E 018°07'0 0.1
2014-Sep-02 06:33N 59°21' E 018°08'122 7.6
2014-Sep-01 14:33N 57°19' E 017°41'9016.7
2014-Sep-01 09:09N 55°58' E 016°30'2715.9
2014-Sep-01 07:26N 55°41' E 015°52'1517.1
2014-Sep-01 06:33N 55°37' E 015°26'1716.9
2014-Sep-01 05:33N 55°30' E 014°59'1716.8
2014-Sep-01 04:33N 55°21' E 014°34'1717.1
2014-Sep-01 03:33N 55°07' E 014°15'1616.5
2014-Sep-01 02:33N 54°59' E 013°51'1716.9
2014-Sep-01 01:33N 54°53' E 013°23'1716.9
2014-Sep-01 00:33N 54°47' E 012°56'1616.4
2014-Aug-31 23:33N 54°40' E 012°30'1615.7
2014-Aug-31 22:33N 54°27' E 012°14'1616.3
2014-Aug-31 21:33N 54°24' E 011°47'1616.4
2014-Aug-31 20:33N 54°32' E 011°21'11613.9
2014-Aug-31 12:15N 56°27' E 011°32'1318.4
2014-Aug-31 11:33N 56°38' E 011°45'1615.9
2014-Aug-31 10:33N 56°54' E 011°46'1717.3
2014-Aug-31 09:33N 57°10' E 011°36'1817.8
2014-Aug-31 08:33N 57°27' E 011°25'1717.5
2014-Aug-31 07:33N 57°39' E 011°00'1716.9
2014-Aug-31 06:33N 57°50' E 010°36'1716.6
2014-Aug-31 05:32N 57°51' E 010°05'1616.4
2014-Aug-31 04:33N 57°45' E 009°37'1817.2
2014-Aug-31 03:31N 57°36' E 009°08'6817.2
2014-Aug-30 23:33N 56°47' E 007°40'19817.8
2014-Aug-30 12:26N 53°58' E 004°39'16017.9
2014-Aug-30 03:29N 51°41' E 002°26'1819.2
2014-Aug-30 02:33N 51°27' E 002°08'1616.1
2014-Aug-30 01:33N 51°12' E 001°57'1918.7
2014-Aug-30 00:33N 50°59' E 001°36'3517.6
2014-Aug-29 22:33N 50°32' E 000°60'1918.0
2014-Aug-29 21:31N 50°26' E 000°32'3517.6
2014-Aug-29 19:33N 50°24' W 000°22'1717.6
2014-Aug-29 18:33N 50°36' W 000°43'1515.3
2014-Aug-29 17:33N 50°44' W 001°04'1212.3
2014-Aug-29 16:33N 50°51' W 001°20'5 4.3
2014-Aug-29 15:21N 50°54' W 001°26'0 0.0
2014-Aug-29 14:27N 50°54' W 001°26'0 0.0
2014-Aug-29 10:21N 50°54' W 001°26'0 0.0
2014-Aug-29 09:09N 50°54' W 001°26'0 0.0
2014-Aug-29 08:09N 50°54' W 001°26'0 0.0
2014-Aug-29 07:21N 50°54' W 001°26'0 0.0
2014-Aug-29 06:33N 50°54' W 001°26'0 0.0
2014-Aug-29 05:33N 50°54' W 001°26'4 4.1
2014-Aug-29 04:34N 50°51' W 001°21'10 9.7
2014-Aug-29 03:33N 50°46' W 001°09'1413.7
2014-Aug-29 02:34N 50°38' W 000°51'1615.8
2014-Aug-29 01:33N 50°34' W 000°27'1614.8
2014-Aug-29 00:30N 50°31' W 000°03'1313.6
2014-Aug-28 23:33N 50°32' E 000°17'1312.8
2014-Aug-28 22:33N 50°36' E 000°37'1313.4
2014-Aug-28 21:33N 50°45' E 000°52'1515.2
2014-Aug-28 20:33N 50°55' E 001°10'1616.5
2014-Aug-28 19:33N 51°05' E 001°30'1515.5
2014-Aug-28 18:33N 51°16' E 001°48'1514.6
2014-Aug-28 17:33N 51°29' E 001°60'1514.6
2014-Aug-28 16:33N 51°40' E 002°14'1211.7
2014-Aug-28 15:31N 51°50' E 002°27'11 9.4
2014-Aug-28 14:21N 51°59' E 002°35'24311.9
2014-Aug-27 18:00N 56°00' E 003°30'   270 / 51018.010.8 15.613.715.0
Track history (hours):
 
Tides and Currents Weather Stations Pressure Air Temp Water Temp Dewpoint Dewpoint Depression Visibility Wind Speed Wind Dir Waves Ship Positions

Oriana (Bermuda)

Last reported at 2014-Sep-03 06:32 UTC. Time now 2014-Sep-03 06:55 UTC.
Position N 59°21' E 018°07'.

Length 261 m; beam 32.2 m; draft 8.2 m.

Type: Ship. MMSI: 310529000.

Date/timePositionNaut miles runAvg speedWind from/ knotsBaromVisibWave heightAir tempDewpointWater temp
2014-Sep-03 06:32N 59°21' E 018°07'0 0.0
2014-Sep-03 05:32N 59°21' E 018°07'0 0.0
2014-Sep-03 04:26N 59°21' E 018°07'0 0.0
2014-Sep-03 03:20N 59°21' E 018°07'0 0.0
2014-Sep-03 02:32N 59°21' E 018°07'0 0.0
2014-Sep-03 01:08N 59°21' E 018°07'0 0.0
2014-Sep-03 00:32N 59°21' E 018°07'0 0.0
2014-Sep-02 22:15N 59°21' E 018°07'0 0.0
2014-Sep-02 19:33N 59°21' E 018°07'0 0.0
2014-Sep-02 18:33N 59°21' E 018°07'0 0.0
2014-Sep-02 17:15N 59°21' E 018°07'0 0.0
2014-Sep-02 16:27N 59°21' E 018°07'0 0.0
2014-Sep-02 13:31N 59°21' E 018°07'0 0.0
2014-Sep-02 11:31N 59°21' E 018°07'0 0.0
2014-Sep-02 10:09N 59°21' E 018°07'0 0.1
2014-Sep-02 06:33N 59°21' E 018°08'122 7.6
2014-Sep-01 14:33N 57°19' E 017°41'9016.7
2014-Sep-01 09:09N 55°58' E 016°30'2715.9
2014-Sep-01 07:26N 55°41' E 015°52'1517.1
2014-Sep-01 06:33N 55°37' E 015°26'1716.9
2014-Sep-01 05:33N 55°30' E 014°59'1716.8
2014-Sep-01 04:33N 55°21' E 014°34'1717.1
2014-Sep-01 03:33N 55°07' E 014°15'1616.5
2014-Sep-01 02:33N 54°59' E 013°51'1716.9
2014-Sep-01 01:33N 54°53' E 013°23'1716.9
2014-Sep-01 00:33N 54°47' E 012°56'1616.4
2014-Aug-31 23:33N 54°40' E 012°30'1615.7
2014-Aug-31 22:33N 54°27' E 012°14'1616.3
2014-Aug-31 21:33N 54°24' E 011°47'1616.4
2014-Aug-31 20:33N 54°32' E 011°21'11613.9
2014-Aug-31 12:15N 56°27' E 011°32'1318.4
2014-Aug-31 11:33N 56°38' E 011°45'1615.9
2014-Aug-31 10:33N 56°54' E 011°46'1717.3
2014-Aug-31 09:33N 57°10' E 011°36'1817.8
2014-Aug-31 08:33N 57°27' E 011°25'1717.5
2014-Aug-31 07:33N 57°39' E 011°00'1716.9
2014-Aug-31 06:33N 57°50' E 010°36'1716.6
2014-Aug-31 05:32N 57°51' E 010°05'1616.4
2014-Aug-31 04:33N 57°45' E 009°37'1817.2
2014-Aug-31 03:31N 57°36' E 009°08'6817.2
2014-Aug-30 23:33N 56°47' E 007°40'19817.8
2014-Aug-30 12:26N 53°58' E 004°39'16017.9
2014-Aug-30 03:29N 51°41' E 002°26'1819.2
2014-Aug-30 02:33N 51°27' E 002°08'1616.1
2014-Aug-30 01:33N 51°12' E 001°57'1918.7
2014-Aug-30 00:33N 50°59' E 001°36'3517.6
2014-Aug-29 22:33N 50°32' E 000°60'1918.0
2014-Aug-29 21:31N 50°26' E 000°32'3517.6
2014-Aug-29 19:33N 50°24' W 000°22'1717.6
2014-Aug-29 18:33N 50°36' W 000°43'1515.3
2014-Aug-29 17:33N 50°44' W 001°04'1212.3
2014-Aug-29 16:33N 50°51' W 001°20'5 4.3
2014-Aug-29 15:21N 50°54' W 001°26'0 0.0
2014-Aug-29 14:27N 50°54' W 001°26'0 0.0
2014-Aug-29 10:21N 50°54' W 001°26'0 0.0
2014-Aug-29 09:09N 50°54' W 001°26'0 0.0
2014-Aug-29 08:09N 50°54' W 001°26'0 0.0
2014-Aug-29 07:21N 50°54' W 001°26'0 0.0
2014-Aug-29 06:33N 50°54' W 001°26'0 0.0
2014-Aug-29 05:33N 50°54' W 001°26'4 4.1
2014-Aug-29 04:34N 50°51' W 001°21'10 9.7
2014-Aug-29 03:33N 50°46' W 001°09'1413.7
2014-Aug-29 02:34N 50°38' W 000°51'1615.8
2014-Aug-29 01:33N 50°34' W 000°27'1614.8
2014-Aug-29 00:30N 50°31' W 000°03'1313.6
2014-Aug-28 23:33N 50°32' E 000°17'1312.8
2014-Aug-28 22:33N 50°36' E 000°37'1313.4
2014-Aug-28 21:33N 50°45' E 000°52'1515.2
2014-Aug-28 20:33N 50°55' E 001°10'1616.5
2014-Aug-28 19:33N 51°05' E 001°30'1515.5
2014-Aug-28 18:33N 51°16' E 001°48'1514.6
2014-Aug-28 17:33N 51°29' E 001°60'1514.6
2014-Aug-28 16:33N 51°40' E 002°14'1211.7
2014-Aug-28 15:31N 51°50' E 002°27'11 9.4
2014-Aug-28 14:21N 51°59' E 002°35'24311.9
2014-Aug-27 18:00N 56°00' E 003°30'   270 / 51018.010.8 15.613.715.0

Dump ship's entire track history